createdAt,value
2019-05-18T00:00:08.342Z,999.94
2019-05-18T00:01:08.483Z,999.96
2019-05-18T00:02:08.608Z,999.97
2019-05-18T00:03:08.747Z,999.95
2019-05-18T00:04:09.381Z,999.97
2019-05-18T00:05:09.078Z,1000.00
2019-05-18T00:06:09.191Z,999.93
2019-05-18T00:07:09.316Z,999.95
2019-05-18T00:08:09.574Z,999.89
2019-05-18T00:09:09.692Z,999.96
2019-05-18T00:10:09.922Z,999.91
2019-05-18T00:11:10.180Z,999.94
2019-05-18T00:12:10.299Z,999.88
2019-05-18T00:13:10.526Z,999.93
2019-05-18T00:14:10.644Z,999.88
2019-05-18T00:15:11.364Z,999.91
2019-05-18T00:16:10.971Z,999.95
2019-05-18T00:17:24.589Z,999.93
2019-05-18T00:18:13.288Z,999.92
2019-05-18T00:19:11.504Z,999.93
2019-05-18T00:20:11.679Z,999.90
2019-05-18T00:21:11.856Z,999.90
2019-05-18T00:22:11.974Z,999.86
2019-05-18T00:23:12.110Z,999.88
2019-05-18T00:24:12.239Z,999.88
2019-05-18T00:25:12.377Z,999.83
2019-05-18T00:26:12.527Z,999.87
2019-05-18T00:27:12.698Z,999.92
2019-05-18T00:28:12.825Z,999.93
2019-05-18T00:29:13.091Z,999.91
2019-05-18T00:30:13.275Z,999.90
2019-05-18T00:31:13.415Z,999.84
2019-05-18T00:32:13.571Z,999.89
2019-05-18T00:33:13.760Z,999.89
2019-05-18T00:34:13.931Z,999.93
2019-05-18T00:35:16.634Z,999.94
2019-05-18T00:36:15.278Z,999.88
2019-05-18T00:37:14.508Z,999.88
2019-05-18T00:38:14.877Z,999.92
2019-05-18T00:39:14.754Z,999.84
2019-05-18T00:40:14.891Z,999.91
2019-05-18T00:41:15.037Z,999.81
2019-05-18T00:42:15.148Z,999.83
2019-05-18T00:43:16.853Z,999.85
2019-05-18T00:44:15.431Z,999.79
2019-05-18T00:45:15.561Z,999.76
2019-05-18T00:46:15.728Z,999.72
2019-05-18T00:47:15.851Z,999.77
2019-05-18T00:48:16.869Z,999.74
2019-05-18T00:49:16.120Z,999.74
2019-05-18T00:50:16.297Z,999.72
2019-05-18T00:51:16.886Z,999.75
2019-05-18T00:52:16.653Z,999.66
2019-05-18T00:53:16.792Z,999.71
2019-05-18T00:54:16.989Z,999.66
2019-05-18T00:55:17.863Z,999.64
2019-05-18T00:56:17.340Z,999.66
2019-05-18T00:57:17.516Z,999.64
2019-05-18T00:58:17.698Z,999.71
2019-05-18T00:59:17.880Z,999.67
2019-05-18T01:00:17.980Z,999.63
2019-05-18T01:01:19.150Z,999.63
2019-05-18T01:02:18.300Z,999.59
2019-05-18T01:03:18.449Z,999.55
2019-05-18T01:04:18.627Z,999.59
2019-05-18T01:05:18.769Z,999.58
2019-05-18T01:06:18.927Z,999.52
2019-05-18T01:07:19.862Z,999.53
2019-05-18T01:08:19.872Z,999.54
2019-05-18T01:09:19.388Z,999.57
2019-05-18T01:10:19.503Z,999.52
2019-05-18T01:11:19.632Z,999.55
2019-05-18T01:12:19.766Z,999.53
2019-05-18T01:13:19.913Z,999.50
2019-05-18T01:14:20.070Z,999.53
2019-05-18T01:15:20.225Z,999.54
2019-05-18T01:16:21.388Z,999.53
2019-05-18T01:17:20.490Z,999.54
2019-05-18T01:18:20.650Z,999.52
2019-05-18T01:19:20.810Z,999.55
2019-05-18T01:20:20.950Z,999.51
2019-05-18T01:21:22.100Z,999.38
2019-05-18T01:22:21.325Z,999.48
2019-05-18T01:23:21.494Z,999.41
2019-05-18T01:24:21.624Z,999.34
2019-05-18T01:25:21.880Z,999.44
2019-05-18T01:26:22.037Z,999.44
2019-05-18T01:27:22.202Z,999.33
2019-05-18T01:28:22.878Z,999.35
2019-05-18T01:29:22.458Z,999.37
2019-05-18T01:30:22.728Z,999.36
2019-05-18T01:31:22.848Z,999.31
2019-05-18T01:32:22.986Z,999.38
2019-05-18T01:33:23.124Z,999.42
2019-05-18T01:34:23.251Z,999.44
2019-05-18T01:35:23.493Z,999.35
2019-05-18T01:36:23.625Z,999.43
2019-05-18T01:37:23.757Z,999.45
2019-05-18T01:38:23.871Z,999.38
2019-05-18T01:39:24.879Z,999.47
2019-05-18T01:40:24.219Z,999.43
2019-05-18T01:41:24.378Z,999.48
2019-05-18T01:42:24.514Z,999.49
2019-05-18T01:43:24.661Z,999.50
2019-05-18T01:44:24.836Z,999.37
2019-05-18T01:45:24.979Z,999.44
2019-05-18T01:46:26.092Z,999.36
2019-05-18T01:47:25.407Z,999.42
2019-05-18T01:48:25.493Z,999.49
2019-05-18T01:49:25.655Z,999.41
2019-05-18T01:50:25.765Z,999.42
2019-05-18T01:51:27.386Z,999.35
2019-05-18T01:52:26.214Z,999.33
2019-05-18T01:53:26.472Z,999.33
2019-05-18T01:54:26.633Z,999.30
2019-05-18T01:55:26.756Z,999.29
2019-05-18T01:56:26.890Z,999.33
2019-05-18T01:57:27.025Z,999.32
2019-05-18T01:58:27.260Z,999.29
2019-05-18T01:59:27.397Z,999.32
2019-05-18T02:00:27.524Z,999.27
2019-05-18T02:01:27.670Z,999.31
2019-05-18T02:02:27.889Z,999.28
2019-05-18T02:03:28.019Z,999.24
2019-05-18T02:04:28.184Z,999.22
2019-05-18T02:05:28.289Z,999.27
2019-05-18T02:06:28.534Z,999.27
2019-05-18T02:07:28.656Z,999.30
2019-05-18T02:08:28.779Z,999.34
2019-05-18T02:09:29.030Z,999.27
2019-05-18T02:10:29.269Z,999.26
2019-05-18T02:11:29.503Z,999.24
2019-05-18T02:12:29.750Z,999.28
2019-05-18T02:13:29.874Z,999.30
2019-05-18T02:14:30.147Z,999.18
2019-05-18T02:15:30.254Z,999.19
2019-05-18T02:16:30.511Z,999.18
2019-05-18T02:17:30.637Z,999.25
2019-05-18T02:18:31.393Z,999.22
2019-05-18T02:19:31.394Z,999.29
2019-05-18T02:20:31.185Z,999.17
2019-05-18T02:21:31.884Z,999.17
2019-05-18T02:22:31.486Z,999.20
2019-05-18T02:23:31.606Z,999.16
2019-05-18T02:24:31.895Z,999.12
2019-05-18T02:25:31.947Z,999.15
2019-05-18T02:26:32.079Z,999.21
2019-05-18T02:27:32.228Z,999.15
2019-05-18T02:28:32.361Z,999.12
2019-05-18T02:29:32.533Z,999.11
2019-05-18T02:30:33.399Z,999.18
2019-05-18T02:31:32.896Z,999.07
2019-05-18T02:32:33.033Z,999.12
2019-05-18T02:33:33.276Z,999.12
2019-05-18T02:34:33.435Z,999.10
2019-05-18T02:35:33.585Z,999.05
2019-05-18T02:36:33.736Z,999.16
2019-05-18T02:37:33.890Z,999.05
2019-05-18T02:38:34.033Z,999.10
2019-05-18T02:39:34.185Z,999.10
2019-05-18T02:40:34.314Z,999.13
2019-05-18T02:41:34.468Z,999.07
2019-05-18T02:42:34.597Z,999.05
2019-05-18T02:43:35.736Z,999.13
2019-05-18T02:44:34.963Z,999.09
2019-05-18T02:45:35.083Z,999.13
2019-05-18T02:46:35.249Z,999.08
2019-05-18T02:47:35.410Z,999.07
2019-05-18T02:48:48.936Z,999.02
2019-05-18T02:49:37.793Z,999.07
2019-05-18T02:50:36.005Z,999.07
2019-05-18T02:51:37.279Z,999.11
2019-05-18T02:52:36.375Z,999.03
2019-05-18T02:53:36.507Z,999.04
2019-05-18T02:54:36.635Z,999.06
2019-05-18T02:55:37.376Z,999.03
2019-05-18T02:56:38.023Z,998.98
2019-05-18T02:57:37.155Z,999.01
2019-05-18T02:58:37.292Z,998.89
2019-05-18T02:59:37.483Z,998.99
2019-05-18T03:00:37.622Z,998.94
2019-05-18T03:01:37.754Z,998.89
2019-05-18T03:02:37.985Z,998.86
2019-05-18T03:03:38.138Z,998.82
2019-05-18T03:04:38.294Z,998.87
2019-05-18T03:05:38.424Z,998.84
2019-05-18T03:06:38.552Z,998.82
2019-05-18T03:07:38.818Z,998.77
2019-05-18T03:08:38.942Z,998.71
2019-05-18T03:09:39.182Z,998.74
2019-05-18T03:10:39.327Z,998.76
2019-05-18T03:11:39.542Z,998.76
2019-05-18T03:12:39.721Z,998.77
2019-05-18T03:13:39.850Z,998.69
2019-05-18T03:14:39.974Z,998.69
2019-05-18T03:15:40.090Z,998.67
2019-05-18T03:16:40.344Z,998.62
2019-05-18T03:17:40.494Z,998.63
2019-05-18T03:18:40.629Z,998.63
2019-05-18T03:19:41.758Z,998.57
2019-05-18T03:20:40.991Z,998.58
2019-05-18T03:21:41.106Z,998.54
2019-05-18T03:22:41.266Z,998.55
2019-05-18T03:23:41.417Z,998.53
2019-05-18T03:24:41.522Z,998.51
2019-05-18T03:25:41.757Z,998.45
2019-05-18T03:26:41.879Z,998.39
2019-05-18T03:27:42.117Z,998.49
2019-05-18T03:28:43.260Z,998.53
2019-05-18T03:29:42.364Z,998.47
2019-05-18T03:30:42.504Z,998.45
2019-05-18T03:31:43.399Z,998.46
2019-05-18T03:32:43.935Z,998.48
2019-05-18T03:33:43.067Z,998.40
2019-05-18T03:34:43.198Z,998.44
2019-05-18T03:35:43.326Z,998.43
2019-05-18T03:36:43.567Z,998.39
2019-05-18T03:37:44.397Z,998.44
2019-05-18T03:38:43.900Z,998.38
2019-05-18T03:39:44.049Z,998.43
2019-05-18T03:40:45.174Z,998.43
2019-05-18T03:41:44.415Z,998.42
2019-05-18T03:42:44.558Z,998.41
2019-05-18T03:43:44.701Z,998.36
2019-05-18T03:44:44.839Z,998.39
2019-05-18T03:45:45.913Z,998.40
2019-05-18T03:46:45.129Z,998.40
2019-05-18T03:47:45.259Z,998.45
2019-05-18T03:48:45.409Z,998.42
2019-05-18T03:49:45.523Z,998.38
2019-05-18T03:50:45.643Z,998.32
2019-05-18T03:51:45.787Z,998.34
2019-05-18T03:52:46.905Z,998.39
2019-05-18T03:53:46.144Z,998.40
2019-05-18T03:54:46.271Z,998.33
2019-05-18T03:55:46.391Z,998.39
2019-05-18T03:56:46.524Z,998.37
2019-05-18T03:57:47.416Z,998.36
2019-05-18T03:58:46.919Z,998.32
2019-05-18T03:59:47.059Z,998.33
2019-05-18T04:00:47.225Z,998.32
2019-05-18T04:01:47.360Z,998.32
2019-05-18T04:02:47.491Z,998.29
2019-05-18T04:03:47.621Z,998.17
2019-05-18T04:04:47.762Z,998.18
2019-05-18T04:05:47.922Z,998.23
2019-05-18T04:06:48.051Z,998.13
2019-05-18T04:07:48.290Z,998.13
2019-05-18T04:08:49.431Z,998.10
2019-05-18T04:09:48.649Z,998.18
2019-05-18T04:10:48.804Z,998.08
2019-05-18T04:11:48.921Z,998.11
2019-05-18T04:12:49.039Z,998.11
2019-05-18T04:13:49.292Z,998.09
2019-05-18T04:14:49.438Z,998.12
2019-05-18T04:15:49.613Z,998.06
2019-05-18T04:16:49.749Z,998.09
2019-05-18T04:17:49.864Z,998.09
2019-05-18T04:18:50.016Z,998.05
2019-05-18T04:19:50.155Z,998.09
2019-05-18T04:20:50.406Z,998.08
2019-05-18T04:21:50.537Z,998.08
2019-05-18T04:22:50.666Z,998.10
2019-05-18T04:23:51.416Z,998.09
2019-05-18T04:24:50.898Z,998.05
2019-05-18T04:25:51.423Z,998.06
2019-05-18T04:26:51.273Z,998.06
2019-05-18T04:27:51.520Z,998.06
2019-05-18T04:28:51.637Z,998.08
2019-05-18T04:29:51.752Z,998.07
2019-05-18T04:30:53.018Z,998.11
2019-05-18T04:31:52.235Z,998.11
2019-05-18T04:32:52.403Z,998.12
2019-05-18T04:33:53.412Z,998.07
2019-05-18T04:34:52.755Z,998.08
2019-05-18T04:35:52.912Z,998.03
2019-05-18T04:36:53.065Z,998.10
2019-05-18T04:37:53.206Z,998.06
2019-05-18T04:38:53.370Z,998.09
2019-05-18T04:39:53.529Z,998.08
2019-05-18T04:40:54.423Z,998.12
2019-05-18T04:41:53.926Z,998.09
2019-05-18T04:42:54.932Z,998.12
2019-05-18T04:43:54.916Z,998.11
2019-05-18T04:44:54.375Z,998.08
2019-05-18T04:45:54.494Z,998.10
2019-05-18T04:46:54.651Z,998.09
2019-05-18T04:47:54.807Z,998.15
2019-05-18T04:48:54.903Z,998.18
2019-05-18T04:50:05.286Z,998.17
2019-05-18T04:50:57.249Z,998.20
2019-05-18T04:51:55.478Z,998.23
2019-05-18T04:52:55.617Z,998.21
2019-05-18T04:53:55.733Z,998.23
2019-05-18T04:54:55.972Z,998.24
2019-05-18T04:55:56.229Z,998.26
2019-05-18T04:56:56.333Z,998.17
2019-05-18T04:57:56.583Z,998.22
2019-05-18T04:58:57.415Z,998.20
2019-05-18T04:59:56.883Z,998.23
2019-05-18T05:00:56.995Z,998.18
2019-05-18T05:01:57.145Z,998.23
2019-05-18T05:02:57.278Z,998.16
2019-05-18T05:03:57.451Z,998.24
2019-05-18T05:04:57.670Z,998.18
2019-05-18T05:05:57.877Z,998.07
2019-05-18T05:06:58.120Z,998.01
2019-05-18T05:07:58.386Z,997.98
2019-05-18T05:08:58.497Z,997.99
2019-05-18T05:09:58.719Z,997.90
2019-05-18T05:10:58.973Z,997.89
2019-05-18T05:11:59.194Z,997.82
2019-05-18T05:12:59.937Z,997.75
2019-05-18T05:13:59.529Z,997.72
2019-05-18T05:15:21.425Z,997.74
2019-05-18T05:16:00.920Z,997.61
2019-05-18T05:17:00.123Z,997.50
2019-05-18T05:18:01.387Z,997.33
2019-05-18T05:19:00.485Z,997.35
2019-05-18T05:20:00.617Z,997.33
2019-05-18T05:21:00.729Z,997.29
2019-05-18T05:22:00.867Z,997.00
2019-05-18T05:23:01.086Z,996.91
2019-05-18T05:24:01.948Z,996.89
2019-05-18T05:25:02.391Z,996.96
2019-05-18T05:26:01.712Z,997.00
2019-05-18T05:27:01.830Z,997.02
2019-05-18T05:28:02.079Z,997.05
2019-05-18T05:29:02.225Z,997.01
2019-05-18T05:30:02.349Z,997.08
2019-05-18T05:31:02.474Z,997.00
2019-05-18T05:32:03.427Z,996.95
2019-05-18T05:33:02.759Z,997.02
2019-05-18T05:34:02.917Z,997.03
2019-05-18T05:35:03.129Z,997.04
2019-05-18T05:36:03.156Z,997.03
2019-05-18T05:37:03.403Z,997.06
2019-05-18T05:38:03.523Z,997.06
2019-05-18T05:39:03.668Z,997.12
2019-05-18T05:40:03.798Z,997.03
2019-05-18T05:41:03.964Z,996.96
2019-05-18T05:42:04.126Z,996.95
2019-05-18T05:43:04.254Z,996.94
2019-05-18T05:44:04.408Z,996.98
2019-05-18T05:45:04.573Z,997.02
2019-05-18T05:46:04.732Z,997.00
2019-05-18T05:47:04.848Z,996.98
2019-05-18T05:48:05.087Z,997.05
2019-05-18T05:49:05.206Z,996.97
2019-05-18T05:50:05.378Z,996.96
2019-05-18T05:51:05.521Z,996.92
2019-05-18T05:52:06.443Z,996.93
2019-05-18T05:53:05.826Z,996.78
2019-05-18T05:54:05.939Z,996.77
2019-05-18T05:55:06.183Z,996.66
2019-05-18T05:56:06.444Z,996.62
2019-05-18T05:57:06.552Z,996.56
2019-05-18T05:58:06.798Z,996.52
2019-05-18T05:59:07.022Z,996.62
2019-05-18T06:00:07.282Z,996.67
2019-05-18T06:01:07.464Z,996.72
2019-05-18T06:02:07.586Z,996.71
2019-05-18T06:03:07.710Z,996.72
2019-05-18T06:04:07.951Z,996.81
2019-05-18T06:05:08.938Z,996.79
2019-05-18T06:06:08.304Z,996.85
2019-05-18T06:07:08.450Z,996.92
2019-05-18T06:08:09.451Z,996.91
2019-05-18T06:09:08.779Z,997.04
2019-05-18T06:10:09.014Z,996.95
2019-05-18T06:11:09.946Z,996.99
2019-05-18T06:12:09.455Z,997.00
2019-05-18T06:13:09.570Z,996.98
2019-05-18T06:14:09.803Z,996.98
2019-05-18T06:15:10.064Z,996.98
2019-05-18T06:16:10.184Z,997.02
2019-05-18T06:17:10.322Z,996.98
2019-05-18T06:18:10.955Z,997.03
2019-05-18T06:19:10.579Z,997.09
2019-05-18T06:20:10.704Z,997.05
2019-05-18T06:21:10.848Z,997.05
2019-05-18T06:22:11.086Z,997.16
2019-05-18T06:23:11.225Z,997.13
2019-05-18T06:24:11.962Z,997.13
2019-05-18T06:25:11.566Z,997.09
2019-05-18T06:26:11.691Z,997.13
2019-05-18T06:27:12.444Z,997.10
2019-05-18T06:28:12.084Z,997.10
2019-05-18T06:29:12.179Z,997.14
2019-05-18T06:30:12.413Z,997.04
2019-05-18T06:31:12.634Z,997.06
2019-05-18T06:32:12.858Z,997.05
2019-05-18T06:33:13.457Z,996.97
2019-05-18T06:34:13.306Z,996.95
2019-05-18T06:35:13.403Z,996.83
2019-05-18T06:36:13.656Z,996.85
2019-05-18T06:37:13.924Z,996.81
2019-05-18T06:38:14.044Z,996.68
2019-05-18T06:39:14.174Z,996.69
2019-05-18T06:40:14.953Z,996.66
2019-05-18T06:41:14.947Z,996.63
2019-05-18T06:42:14.554Z,996.57
2019-05-18T06:43:14.722Z,996.54
2019-05-18T06:44:14.872Z,996.47
2019-05-18T06:45:15.016Z,996.41
2019-05-18T06:46:15.946Z,996.36
2019-05-18T06:47:15.500Z,996.32
2019-05-18T06:48:15.663Z,996.18
2019-05-18T06:49:15.806Z,996.16
2019-05-18T06:50:16.951Z,996.14
2019-05-18T06:51:16.080Z,996.11
2019-05-18T06:52:16.249Z,996.03
2019-05-18T06:53:16.451Z,996.04
2019-05-18T06:54:17.450Z,996.02
2019-05-18T06:55:16.818Z,995.97
2019-05-18T06:56:16.966Z,995.89
2019-05-18T06:57:17.185Z,995.72
2019-05-18T06:58:17.321Z,995.55
2019-05-18T06:59:17.477Z,995.34
2019-05-18T07:00:17.615Z,994.86
2019-05-18T07:01:17.749Z,994.52
2019-05-18T07:02:17.895Z,994.43
2019-05-18T07:03:18.044Z,994.26
2019-05-18T07:04:18.192Z,994.24
2019-05-18T07:05:18.365Z,994.26
2019-05-18T07:06:19.453Z,994.25
2019-05-18T07:07:18.703Z,994.12
2019-05-18T07:08:18.831Z,994.08
2019-05-18T07:09:18.976Z,993.94
2019-05-18T07:10:19.099Z,993.71
2019-05-18T07:11:19.219Z,993.52
2019-05-18T07:12:19.352Z,993.49
2019-05-18T07:13:19.540Z,993.31
2019-05-18T07:14:25.601Z,993.33
2019-05-18T07:15:21.807Z,993.09
2019-05-18T07:16:20.021Z,993.01
2019-05-18T07:17:20.181Z,993.13
2019-05-18T07:18:20.330Z,993.27
2019-05-18T07:19:20.497Z,993.54
2019-05-18T07:20:20.640Z,993.71
2019-05-18T07:21:22.600Z,993.76
2019-05-18T07:22:21.937Z,993.80
2019-05-18T07:23:21.058Z,994.03
2019-05-18T07:24:21.245Z,994.10
2019-05-18T07:25:21.476Z,994.11
2019-05-18T07:26:21.605Z,994.22
2019-05-18T07:27:22.454Z,994.08
2019-05-18T07:28:21.985Z,993.82
2019-05-18T07:29:22.140Z,993.75
2019-05-18T07:30:22.294Z,993.31
2019-05-18T07:31:22.435Z,993.30
2019-05-18T07:32:22.596Z,993.38
2019-05-18T07:33:22.754Z,993.55
2019-05-18T07:34:26.423Z,993.73
2019-05-18T07:35:23.048Z,993.70
2019-05-18T07:36:23.202Z,993.72
2019-05-18T07:37:23.343Z,993.50
2019-05-18T07:38:23.511Z,993.46
2019-05-18T07:39:24.492Z,993.62
2019-05-18T07:40:23.929Z,993.78
2019-05-18T07:41:24.980Z,993.93
2019-05-18T07:42:24.219Z,994.13
2019-05-18T07:43:24.381Z,994.14
2019-05-18T07:44:24.536Z,994.15
2019-05-18T07:45:24.717Z,994.01
2019-05-18T07:46:24.847Z,993.75
2019-05-18T07:47:25.015Z,993.65
2019-05-18T07:48:25.172Z,993.37
2019-05-18T07:49:25.305Z,993.09
2019-05-18T07:50:25.504Z,992.64
2019-05-18T07:51:36.695Z,992.38
2019-05-18T07:52:27.777Z,992.46
2019-05-18T07:53:26.004Z,992.59
2019-05-18T07:54:26.150Z,992.80
2019-05-18T07:55:26.300Z,992.99
2019-05-18T07:56:26.990Z,993.08
2019-05-18T07:57:26.617Z,993.27
2019-05-18T07:58:26.797Z,993.34
2019-05-18T07:59:26.988Z,993.36
2019-05-18T08:00:27.502Z,993.44
2019-05-18T08:01:27.308Z,993.50
2019-05-18T08:02:27.436Z,993.66
2019-05-18T08:03:27.681Z,993.78
2019-05-18T08:04:27.844Z,993.87
2019-05-18T08:05:28.014Z,993.96
2019-05-18T08:06:28.200Z,993.98
2019-05-18T08:07:28.339Z,994.04
2019-05-18T08:08:28.980Z,994.11
2019-05-18T08:09:29.477Z,994.25
2019-05-18T08:10:28.995Z,994.34
2019-05-18T08:11:28.997Z,994.33
2019-05-18T08:12:29.149Z,994.36
2019-05-18T08:13:29.295Z,994.38
2019-05-18T08:14:29.975Z,994.38
2019-05-18T08:15:29.601Z,994.38
2019-05-18T08:16:29.764Z,994.35
2019-05-18T08:17:29.911Z,994.37
2019-05-18T08:18:30.072Z,994.37
2019-05-18T08:19:30.234Z,994.46
2019-05-18T08:20:30.386Z,994.42
2019-05-18T08:21:30.543Z,994.40
2019-05-18T08:22:30.703Z,994.39
2019-05-18T08:23:31.481Z,994.40
2019-05-18T08:24:30.996Z,994.38
2019-05-18T08:25:31.144Z,994.44
2019-05-18T08:26:32.014Z,994.47
2019-05-18T08:27:31.511Z,994.45
2019-05-18T08:28:31.660Z,994.47
2019-05-18T08:29:32.500Z,994.47
2019-05-18T08:30:31.990Z,994.46
2019-05-18T08:31:32.118Z,994.46
2019-05-18T08:32:32.293Z,994.47
2019-05-18T08:33:32.496Z,994.40
2019-05-18T08:34:32.667Z,994.37
2019-05-18T08:35:32.831Z,994.32
2019-05-18T08:36:33.476Z,994.25
2019-05-18T08:37:33.100Z,994.13
2019-05-18T08:38:33.267Z,994.06
2019-05-18T08:39:33.450Z,993.94
2019-05-18T08:40:33.679Z,993.86
2019-05-18T08:41:33.826Z,993.93
2019-05-18T08:42:33.962Z,993.79
2019-05-18T08:43:35.239Z,993.83
2019-05-18T08:44:34.350Z,993.72
2019-05-18T08:45:34.478Z,993.73
2019-05-18T08:46:34.644Z,993.72
2019-05-18T08:47:34.800Z,993.69
2019-05-18T08:48:34.959Z,993.65
2019-05-18T08:49:35.117Z,993.53
2019-05-18T08:50:36.004Z,993.50
2019-05-18T08:51:35.531Z,993.47
2019-05-18T08:52:35.688Z,993.44
2019-05-18T08:53:35.882Z,993.40
2019-05-18T08:54:36.071Z,993.31
2019-05-18T08:55:36.265Z,993.25
2019-05-18T08:56:36.446Z,993.18
2019-05-18T08:57:36.586Z,993.18
2019-05-18T08:58:36.741Z,993.24
2019-05-18T08:59:39.815Z,993.25
2019-05-18T09:00:37.131Z,993.33
2019-05-18T09:01:37.311Z,993.35
2019-05-18T09:02:37.480Z,993.42
2019-05-18T09:03:38.527Z,993.47
2019-05-18T09:04:37.813Z,993.46
2019-05-18T09:05:38.016Z,993.53
2019-05-18T09:06:38.193Z,993.52
2019-05-18T09:07:38.353Z,993.59
2019-05-18T09:08:38.512Z,993.61
2019-05-18T09:09:39.503Z,993.65
2019-05-18T09:10:38.816Z,993.57
2019-05-18T09:11:38.993Z,993.54
2019-05-18T09:12:40.017Z,993.45
2019-05-18T09:13:39.382Z,993.45
2019-05-18T09:14:39.503Z,993.44
2019-05-18T09:15:39.688Z,993.40
2019-05-18T09:16:40.530Z,993.34
2019-05-18T09:17:40.039Z,993.34
2019-05-18T09:18:40.179Z,993.36
2019-05-18T09:19:40.326Z,993.45
2019-05-18T09:20:40.502Z,993.44
2019-05-18T09:21:41.697Z,993.51
2019-05-18T09:22:40.803Z,993.62
2019-05-18T09:23:40.943Z,993.75
2019-05-18T09:24:41.117Z,993.78
2019-05-18T09:25:41.272Z,993.91
2019-05-18T09:26:41.432Z,994.08
2019-05-18T09:27:41.622Z,994.14
2019-05-18T09:28:42.519Z,994.18
2019-05-18T09:29:43.013Z,994.23
2019-05-18T09:30:42.249Z,994.36
2019-05-18T09:31:42.426Z,994.34
2019-05-18T09:32:42.573Z,994.50
2019-05-18T09:33:43.074Z,994.59
2019-05-18T09:34:42.951Z,994.62
2019-05-18T09:35:44.038Z,994.67
2019-05-18T09:36:43.386Z,994.83
2019-05-18T09:37:43.551Z,994.79
2019-05-18T09:38:43.704Z,994.88
2019-05-18T09:39:44.512Z,994.97
2019-05-18T09:40:44.000Z,994.98
2019-05-18T09:41:44.157Z,995.05
2019-05-18T09:42:44.325Z,995.11
2019-05-18T09:43:44.489Z,995.09
2019-05-18T09:44:44.626Z,995.19
2019-05-18T09:45:46.474Z,995.25
2019-05-18T09:46:45.022Z,995.28
2019-05-18T09:47:45.227Z,995.24
2019-05-18T09:48:45.407Z,995.36
2019-05-18T09:49:45.575Z,995.39
2019-05-18T09:50:45.699Z,995.42
2019-05-18T09:51:45.856Z,995.46
2019-05-18T09:52:46.603Z,995.60
2019-05-18T09:53:51.506Z,995.61
2019-05-18T09:54:47.330Z,995.65
2019-05-18T09:55:46.468Z,995.65
2019-05-18T09:56:46.600Z,995.67
2019-05-18T09:57:46.776Z,995.71
2019-05-18T09:58:46.901Z,995.83
2019-05-18T09:59:48.037Z,995.81
2019-05-18T10:00:47.262Z,995.82
2019-05-18T10:01:47.526Z,995.84
2019-05-18T10:02:47.574Z,995.91
2019-05-18T10:03:47.785Z,995.87
2019-05-18T10:04:47.941Z,995.91
2019-05-18T10:05:49.017Z,996.00
2019-05-18T10:06:49.090Z,996.01
2019-05-18T10:07:48.454Z,995.97
2019-05-18T10:08:48.628Z,995.97
2019-05-18T10:09:48.786Z,995.98
2019-05-18T10:10:48.944Z,995.98
2019-05-18T10:11:49.081Z,995.97
2019-05-18T10:12:49.225Z,995.98
2019-05-18T10:13:49.529Z,995.98
2019-05-18T10:14:50.033Z,995.94
2019-05-18T10:15:50.525Z,995.99
2019-05-18T10:16:50.021Z,995.89
2019-05-18T10:17:50.148Z,995.91
2019-05-18T10:18:50.346Z,995.96
2019-05-18T10:19:51.021Z,995.88
2019-05-18T10:20:51.546Z,995.81
2019-05-18T10:21:50.796Z,995.76
2019-05-18T10:22:59.143Z,995.78
2019-05-18T10:23:52.179Z,995.74
2019-05-18T10:25:24.708Z,995.77
2019-05-18T10:25:51.416Z,995.71
2019-05-18T10:26:51.552Z,995.68
2019-05-18T10:27:52.063Z,995.74
2019-05-18T10:28:51.828Z,995.65
2019-05-18T10:29:52.063Z,995.61
2019-05-18T10:30:52.213Z,995.48
2019-05-18T10:31:52.394Z,995.47
2019-05-18T10:32:53.073Z,995.46
2019-05-18T10:33:52.707Z,995.47
2019-05-18T10:34:52.877Z,995.47
2019-05-18T10:35:53.031Z,995.45
2019-05-18T10:36:53.179Z,995.52
2019-05-18T10:37:53.337Z,995.50
2019-05-18T10:38:53.496Z,995.52
2019-05-18T10:39:54.086Z,995.53
2019-05-18T10:40:54.559Z,995.59
2019-05-18T10:41:54.086Z,995.68
2019-05-18T10:42:54.261Z,995.65
2019-05-18T10:43:54.408Z,995.72
2019-05-18T10:44:55.087Z,995.73
2019-05-18T10:45:54.767Z,995.73
2019-05-18T10:46:55.076Z,995.73
2019-05-18T10:47:55.090Z,995.68
2019-05-18T10:48:55.230Z,995.75
2019-05-18T10:49:55.402Z,995.74
2019-05-18T10:50:55.598Z,995.72
2019-05-18T10:51:55.756Z,995.76
2019-05-18T10:52:56.935Z,995.65
2019-05-18T10:53:56.580Z,995.77
2019-05-18T10:54:57.084Z,995.75
2019-05-18T10:55:56.379Z,995.73
2019-05-18T10:56:56.555Z,995.74
2019-05-18T10:57:56.739Z,995.72
2019-05-18T10:58:56.871Z,995.67
2019-05-18T10:59:57.039Z,995.66
2019-05-18T11:00:58.086Z,995.62
2019-05-18T11:01:57.577Z,995.61
2019-05-18T11:02:57.456Z,995.63
2019-05-18T11:03:58.577Z,995.50
2019-05-18T11:04:58.560Z,995.37
2019-05-18T11:05:58.062Z,995.29
2019-05-18T11:06:58.225Z,995.18
2019-05-18T11:07:58.414Z,995.10
2019-05-18T11:08:59.089Z,995.01
2019-05-18T11:09:58.740Z,994.96
2019-05-18T11:10:58.861Z,994.92
2019-05-18T11:11:58.996Z,994.93
2019-05-18T11:12:59.614Z,994.86
2019-05-18T11:13:59.348Z,994.81
2019-05-18T11:14:59.470Z,994.65
2019-05-18T11:15:59.613Z,994.76
2019-05-18T11:16:59.751Z,994.70
2019-05-18T11:18:00.080Z,994.74
2019-05-18T11:19:01.069Z,994.77
2019-05-18T11:20:00.464Z,994.81
2019-05-18T11:21:00.595Z,994.84
2019-05-18T11:22:01.570Z,994.91
2019-05-18T11:23:00.918Z,994.86
2019-05-18T11:24:01.050Z,994.76
2019-05-18T11:25:01.209Z,994.70
2019-05-18T11:26:02.087Z,994.68
2019-05-18T11:27:02.072Z,994.62
2019-05-18T11:28:01.871Z,994.60
2019-05-18T11:29:01.934Z,994.56
2019-05-18T11:30:02.099Z,994.54
2019-05-18T11:31:03.086Z,994.53
2019-05-18T11:32:03.070Z,994.51
2019-05-18T11:33:03.099Z,994.45
2019-05-18T11:34:02.846Z,994.43
2019-05-18T11:35:02.961Z,994.34
2019-05-18T11:36:03.099Z,994.23
2019-05-18T11:37:03.386Z,994.24
2019-05-18T11:38:03.588Z,994.19
2019-05-18T11:39:03.648Z,994.11
2019-05-18T11:40:03.810Z,994.13
2019-05-18T11:41:03.977Z,994.00
2019-05-18T11:42:05.095Z,994.02
2019-05-18T11:43:04.367Z,994.03
2019-05-18T11:44:05.087Z,993.97
2019-05-18T11:45:05.589Z,994.00
2019-05-18T11:46:04.834Z,993.97
2019-05-18T11:47:05.587Z,994.11
2019-05-18T11:48:05.243Z,994.14
2019-05-18T11:49:05.395Z,994.28
2019-05-18T11:50:05.586Z,994.18
2019-05-18T11:51:06.735Z,994.13
2019-05-18T11:52:05.936Z,994.06
2019-05-18T11:53:06.090Z,993.93
2019-05-18T11:54:06.241Z,993.80
2019-05-18T11:55:07.085Z,993.75
2019-05-18T11:56:06.574Z,993.67
2019-05-18T11:57:06.721Z,993.55
2019-05-18T11:58:06.892Z,993.50
2019-05-18T11:59:07.025Z,993.47
2019-05-18T12:00:07.157Z,993.41
2019-05-18T12:01:07.300Z,993.30
2019-05-18T12:02:07.563Z,993.21
2019-05-18T12:03:07.708Z,993.19
2019-05-18T12:04:07.860Z,993.24
2019-05-18T12:05:07.994Z,993.22
2019-05-18T12:06:08.153Z,993.38
2019-05-18T12:07:08.277Z,993.39
2019-05-18T12:08:09.100Z,993.42
2019-05-18T12:09:09.111Z,993.45
2019-05-18T12:10:08.728Z,993.52
2019-05-18T12:11:09.107Z,993.63
2019-05-18T12:12:08.992Z,993.68
2019-05-18T12:13:09.158Z,993.71
2019-05-18T12:14:09.288Z,993.75
2019-05-18T12:15:09.448Z,993.80
2019-05-18T12:16:09.615Z,993.83
2019-05-18T12:17:09.764Z,993.80
2019-05-18T12:18:09.925Z,993.75
2019-05-18T12:19:10.106Z,993.70
2019-05-18T12:20:10.612Z,993.78
2019-05-18T12:21:10.381Z,993.81
2019-05-18T12:22:10.540Z,993.95
2019-05-18T12:23:11.603Z,994.05
2019-05-18T12:24:15.315Z,994.04
2019-05-18T12:25:13.006Z,994.13
2019-05-18T12:26:11.595Z,994.15
2019-05-18T12:27:11.273Z,994.27
2019-05-18T12:28:11.400Z,994.27
2019-05-18T12:29:12.582Z,994.35
2019-05-18T12:30:11.853Z,994.35